createdAt,value
2022-10-16T00:00:54.838Z,7.18
2022-10-16T00:03:21.973Z,6.35
2022-10-16T00:05:50.777Z,6.20
2022-10-16T00:08:17.387Z,9.50
2022-10-16T00:10:43.947Z,7.28
2022-10-16T00:13:10.583Z,5.75
2022-10-16T00:15:37.660Z,6.68
2022-10-16T00:18:05.082Z,5.87
2022-10-16T00:20:34.496Z,6.97
2022-10-16T00:23:01.082Z,5.72
2022-10-16T00:25:27.731Z,6.37
2022-10-16T00:27:54.652Z,6.07
2022-10-16T00:30:24.357Z,4.62
2022-10-16T00:32:50.915Z,7.95
2022-10-16T00:35:17.534Z,6.55
2022-10-16T00:37:44.490Z,6.40
2022-10-16T00:40:11.439Z,7.47
2022-10-16T00:42:38.160Z,6.05
2022-10-16T00:45:05.121Z,6.20
2022-10-16T00:47:32.933Z,5.55
2022-10-16T00:50:06.918Z,8.63
2022-10-16T00:52:33.473Z,6.12
2022-10-16T00:55:00.032Z,6.28
2022-10-16T00:57:26.656Z,5.90
2022-10-16T00:59:53.212Z,5.78
2022-10-16T01:02:19.804Z,6.25
2022-10-16T01:04:49.119Z,5.87
2022-10-16T01:07:57.549Z,7.55
2022-10-16T01:10:41.361Z,5.35
2022-10-16T01:13:10.615Z,5.15
2022-10-16T01:15:46.164Z,6.82
2022-10-16T01:18:18.564Z,7.68
2022-10-16T01:20:57.627Z,5.72
2022-10-16T01:24:01.856Z,6.90
2022-10-16T01:26:42.463Z,5.97
2022-10-16T01:29:09.249Z,5.90
2022-10-16T01:31:37.628Z,5.97
2022-10-16T01:34:11.142Z,5.90
2022-10-16T01:36:43.424Z,4.75
2022-10-16T01:39:12.948Z,7.05
2022-10-16T01:41:42.360Z,6.82
2022-10-16T01:44:18.810Z,6.40
2022-10-16T01:46:47.080Z,7.10
2022-10-16T01:49:14.346Z,5.95
2022-10-16T01:51:41.018Z,5.22
2022-10-16T01:54:09.137Z,6.07
2022-10-16T01:56:35.884Z,7.20
2022-10-16T01:59:25.884Z,6.03
2022-10-16T02:02:00.983Z,5.72
2022-10-16T02:04:33.315Z,5.15
2022-10-16T02:06:59.925Z,6.28
2022-10-16T02:09:26.483Z,7.10
2022-10-16T02:11:54.825Z,5.50
2022-10-16T02:14:21.401Z,5.75
2022-10-16T02:16:48.075Z,7.62
2022-10-16T02:19:14.857Z,7.18
2022-10-16T02:21:48.170Z,4.85
2022-10-16T02:24:20.644Z,6.62
2022-10-16T02:26:50.672Z,6.05
2022-10-16T02:29:18.800Z,5.15
2022-10-16T02:31:48.280Z,7.28
2022-10-16T02:34:14.945Z,5.80
2022-10-16T02:36:41.990Z,5.45
2022-10-16T02:39:08.818Z,6.53
2022-10-16T02:41:35.476Z,5.07
2022-10-16T02:44:02.023Z,7.68
2022-10-16T02:46:28.620Z,4.82
2022-10-16T02:48:55.168Z,6.75
2022-10-16T02:51:21.849Z,5.37
2022-10-16T02:53:48.395Z,5.95
2022-10-16T02:56:15.028Z,4.75
2022-10-16T02:58:41.648Z,4.95
2022-10-16T03:01:08.991Z,8.77
2022-10-16T03:03:38.314Z,7.05
2022-10-16T03:06:05.101Z,5.90
2022-10-16T03:08:31.652Z,5.95
2022-10-16T03:11:00.347Z,6.05
2022-10-16T03:13:26.906Z,5.35
2022-10-16T03:15:53.504Z,6.55
2022-10-16T03:18:20.134Z,4.55
2022-10-16T03:20:46.785Z,9.25
2022-10-16T03:23:13.361Z,8.85
2022-10-16T03:25:42.501Z,6.03
2022-10-16T03:28:09.325Z,6.12
2022-10-16T03:30:35.930Z,5.87
2022-10-16T03:33:02.562Z,4.95
2022-10-16T03:35:29.156Z,6.37
2022-10-16T03:37:55.749Z,4.70
2022-10-16T03:40:22.414Z,4.72
2022-10-16T03:42:48.971Z,7.70
2022-10-16T03:45:15.644Z,4.65
2022-10-16T03:47:42.360Z,5.22
2022-10-16T03:50:09.099Z,5.65
2022-10-16T03:52:35.754Z,5.57
2022-10-16T03:55:02.284Z,5.47
2022-10-16T03:57:29.181Z,6.53
2022-10-16T03:59:55.971Z,7.03
2022-10-16T04:02:22.581Z,5.55
2022-10-16T04:04:49.175Z,4.40
2022-10-16T04:07:15.802Z,4.50
2022-10-16T04:09:43.006Z,5.87
2022-10-16T04:12:09.639Z,4.85
2022-10-16T04:14:36.216Z,3.95
2022-10-16T04:17:02.957Z,5.75
2022-10-16T04:19:29.533Z,4.43
2022-10-16T04:21:56.086Z,6.65
2022-10-16T04:24:22.675Z,6.28
2022-10-16T04:26:49.235Z,5.07
2022-10-16T04:29:15.901Z,5.47
2022-10-16T04:31:42.489Z,4.47
2022-10-16T04:34:09.182Z,5.00
2022-10-16T04:36:35.797Z,5.53
2022-10-16T04:39:02.436Z,6.32
2022-10-16T04:41:28.997Z,4.60
2022-10-16T04:43:55.599Z,5.15
2022-10-16T04:46:22.182Z,6.07
2022-10-16T04:48:48.751Z,4.05
2022-10-16T04:51:15.322Z,4.62
2022-10-16T04:53:41.895Z,6.10
2022-10-16T04:56:08.451Z,5.62
2022-10-16T04:58:34.985Z,3.83
2022-10-16T05:01:01.534Z,6.28
2022-10-16T05:03:28.292Z,4.57
2022-10-16T05:05:54.935Z,5.47
2022-10-16T05:08:21.655Z,3.90
2022-10-16T05:10:48.250Z,5.90
2022-10-16T05:13:14.784Z,3.58
2022-10-16T05:15:41.715Z,5.35
2022-10-16T05:18:09.106Z,5.05
2022-10-16T05:20:35.677Z,6.95
2022-10-16T05:23:02.261Z,3.80
2022-10-16T05:25:28.927Z,4.70
2022-10-16T05:27:55.508Z,4.65
2022-10-16T05:30:22.159Z,5.07
2022-10-16T05:32:49.866Z,4.22
2022-10-16T05:35:17.191Z,6.32
2022-10-16T05:37:43.728Z,4.20
2022-10-16T05:40:11.063Z,4.37
2022-10-16T05:42:38.226Z,4.62
2022-10-16T05:45:06.456Z,5.75
2022-10-16T05:47:33.015Z,4.55
2022-10-16T05:49:59.582Z,4.60
2022-10-16T05:52:26.160Z,4.68
2022-10-16T05:54:52.723Z,5.18
2022-10-16T05:57:19.257Z,5.45
2022-10-16T05:59:46.002Z,4.37
2022-10-16T06:02:17.095Z,5.40
2022-10-16T06:04:43.703Z,4.93
2022-10-16T06:07:10.247Z,4.60
2022-10-16T06:09:36.853Z,5.07
2022-10-16T06:12:03.485Z,4.80
2022-10-16T06:14:30.136Z,6.05
2022-10-16T06:16:56.678Z,6.30
2022-10-16T06:19:23.918Z,5.40
2022-10-16T06:21:50.467Z,4.82
2022-10-16T06:24:17.091Z,4.53
2022-10-16T06:26:43.955Z,4.72
2022-10-16T06:29:10.558Z,5.65
2022-10-16T06:31:37.183Z,5.03
2022-10-16T06:34:05.763Z,7.28
2022-10-16T06:36:32.450Z,4.25
2022-10-16T06:38:59.023Z,5.03
2022-10-16T06:41:25.649Z,6.07
2022-10-16T06:43:53.255Z,4.90
2022-10-16T06:46:21.681Z,6.20
2022-10-16T06:48:50.970Z,4.60
2022-10-16T06:51:20.859Z,4.28
2022-10-16T06:54:06.901Z,5.70
2022-10-16T06:56:33.897Z,4.50
2022-10-16T06:59:00.753Z,4.80
2022-10-16T07:01:28.513Z,4.12
2022-10-16T07:03:55.078Z,7.68
2022-10-16T07:06:23.035Z,4.32
2022-10-16T07:08:49.783Z,4.28
2022-10-16T07:11:21.242Z,5.18
2022-10-16T07:13:52.545Z,4.22
2022-10-16T07:16:23.134Z,8.07
2022-10-16T07:18:50.375Z,4.37
2022-10-16T07:21:18.466Z,5.10
2022-10-16T07:23:45.048Z,5.85
2022-10-16T07:26:11.775Z,4.20
2022-10-16T07:28:38.820Z,3.72
2022-10-16T07:31:07.713Z,4.68
2022-10-16T07:33:34.738Z,4.72
2022-10-16T07:36:01.347Z,5.12
2022-10-16T07:38:27.959Z,4.95
2022-10-16T07:40:59.068Z,4.72
2022-10-16T07:43:26.492Z,4.12
2022-10-16T07:48:25.365Z,6.65
2022-10-16T07:50:51.979Z,4.82
2022-10-16T07:53:20.514Z,4.30
2022-10-16T07:55:48.935Z,4.25
2022-10-16T07:58:15.490Z,6.05
2022-10-16T08:00:42.052Z,5.37
2022-10-16T08:03:09.323Z,4.75
2022-10-16T08:05:35.994Z,6.20
2022-10-16T08:08:03.043Z,6.53
2022-10-16T08:10:29.953Z,5.12
2022-10-16T08:12:56.547Z,5.57
2022-10-16T08:15:23.408Z,4.78
2022-10-16T08:18:00.367Z,5.25
2022-10-16T08:20:27.329Z,4.57
2022-10-16T08:22:54.949Z,4.87
2022-10-16T08:25:22.471Z,4.90
2022-10-16T08:27:49.213Z,5.35
2022-10-16T08:30:16.238Z,4.95
2022-10-16T08:32:43.059Z,4.00
2022-10-16T08:35:12.958Z,4.90
2022-10-16T08:37:39.770Z,4.05
2022-10-16T08:40:07.534Z,4.65
2022-10-16T08:42:53.533Z,5.50
2022-10-16T08:45:35.288Z,4.47
2022-10-16T08:48:06.550Z,5.35
2022-10-16T08:50:33.844Z,3.87
2022-10-16T08:53:00.435Z,4.20
2022-10-16T08:55:35.318Z,4.60
2022-10-16T08:58:01.861Z,6.17
2022-10-16T09:00:28.510Z,4.40
2022-10-16T09:03:24.241Z,4.47
2022-10-16T09:06:19.219Z,5.68
2022-10-16T09:09:04.593Z,4.03
2022-10-16T09:11:51.447Z,4.80
2022-10-16T09:14:38.999Z,4.60
2022-10-16T09:17:31.280Z,4.90
2022-10-16T09:20:10.407Z,4.70
2022-10-16T09:22:36.972Z,4.90
2022-10-16T09:25:12.798Z,6.12
2022-10-16T09:30:19.428Z,4.62
2022-10-16T09:32:49.360Z,4.57
2022-10-16T09:35:20.047Z,4.80
2022-10-16T09:37:47.972Z,4.40
2022-10-16T09:40:24.925Z,3.97
2022-10-16T09:42:51.500Z,3.83
2022-10-16T09:45:22.674Z,4.72
2022-10-16T09:47:50.851Z,3.83
2022-10-16T09:50:22.212Z,5.93
2022-10-16T09:52:48.970Z,6.35
2022-10-16T09:55:17.605Z,4.75
2022-10-16T09:58:14.108Z,5.22
2022-10-16T10:00:41.202Z,3.90
2022-10-16T10:03:11.434Z,4.68
2022-10-16T10:05:38.536Z,3.95
2022-10-16T10:08:09.461Z,5.22
2022-10-16T10:10:42.514Z,4.07
2022-10-16T10:13:22.731Z,6.43
2022-10-16T10:15:49.322Z,3.92
2022-10-16T10:18:17.552Z,4.62
2022-10-16T10:20:44.354Z,3.95
2022-10-16T10:23:22.471Z,4.57
2022-10-16T10:26:08.892Z,3.92
2022-10-16T10:29:17.384Z,5.70
2022-10-16T10:32:09.663Z,4.22
2022-10-16T10:35:14.051Z,4.72
2022-10-16T10:37:49.776Z,4.78
2022-10-16T10:43:40.385Z,4.78
2022-10-16T10:46:07.700Z,4.32
2022-10-16T10:48:52.799Z,5.40
2022-10-16T10:51:24.390Z,4.95
2022-10-16T10:54:16.062Z,5.03
2022-10-16T10:57:01.708Z,4.15
2022-10-16T10:59:32.063Z,5.20
2022-10-16T11:02:22.396Z,3.08
2022-10-16T11:04:58.983Z,4.35
2022-10-16T11:07:31.185Z,4.65
2022-10-16T11:10:24.032Z,4.80
2022-10-16T11:12:56.218Z,5.50
2022-10-16T11:15:26.865Z,4.22
2022-10-16T11:17:56.866Z,5.60
2022-10-16T11:20:31.186Z,7.57
2022-10-16T11:23:07.261Z,4.00
2022-10-16T11:25:34.099Z,4.40
2022-10-16T11:28:11.926Z,4.28
2022-10-16T11:30:51.419Z,5.32
2022-10-16T11:33:32.567Z,4.95
2022-10-16T11:36:20.495Z,5.75
2022-10-16T11:38:54.897Z,5.20
2022-10-16T11:41:21.390Z,4.35
2022-10-16T11:44:06.824Z,4.12
2022-10-16T11:46:33.658Z,4.97
2022-10-16T11:49:35.931Z,3.90
2022-10-16T11:52:41.502Z,5.60
2022-10-16T11:55:18.072Z,6.40
2022-10-16T11:57:55.886Z,4.35
2022-10-16T12:00:31.355Z,5.18
2022-10-16T12:03:13.234Z,7.47
2022-10-16T12:06:07.975Z,4.93
2022-10-16T12:08:35.390Z,5.47
2022-10-16T12:11:09.969Z,5.07
2022-10-16T12:13:41.241Z,7.30
2022-10-16T12:16:13.978Z,3.40
2022-10-16T12:18:41.472Z,5.32
2022-10-16T12:21:08.592Z,4.30
2022-10-16T12:23:39.257Z,5.00
2022-10-16T12:26:05.881Z,3.22
2022-10-16T12:28:36.522Z,5.95
2022-10-16T12:31:07.871Z,4.97
2022-10-16T12:33:34.745Z,4.78
2022-10-16T12:36:03.287Z,4.43
2022-10-16T12:38:39.786Z,7.12
2022-10-16T12:41:11.738Z,4.05
2022-10-16T12:43:45.582Z,4.12
2022-10-16T12:46:17.952Z,4.43
2022-10-16T12:48:49.543Z,3.30
2022-10-16T12:51:31.886Z,5.07
2022-10-16T12:54:11.206Z,3.95
2022-10-16T12:56:44.439Z,4.22
2022-10-16T12:59:10.950Z,3.90
2022-10-16T13:02:04.250Z,5.32
2022-10-16T13:04:46.028Z,3.67
2022-10-16T13:07:38.344Z,4.70
2022-10-16T13:10:04.769Z,6.10
2022-10-16T13:13:10.682Z,5.93
2022-10-16T13:15:43.366Z,3.95
2022-10-16T13:18:17.187Z,5.62
2022-10-16T13:21:03.922Z,5.03
2022-10-16T13:24:06.271Z,7.18
2022-10-16T13:26:56.714Z,4.60
2022-10-16T13:29:23.464Z,3.83
2022-10-16T13:31:50.038Z,4.80
2022-10-16T13:34:21.472Z,4.10
2022-10-16T13:36:52.108Z,4.12
2022-10-16T13:39:31.633Z,4.85
2022-10-16T13:42:04.845Z,3.60
2022-10-16T13:44:44.734Z,4.18
2022-10-16T13:47:18.656Z,4.25
2022-10-16T13:49:45.314Z,4.75
2022-10-16T13:52:20.087Z,3.97
2022-10-16T13:54:46.648Z,5.07
2022-10-16T13:57:26.656Z,5.20
2022-10-16T13:59:54.320Z,3.47
2022-10-16T14:02:36.351Z,5.55
2022-10-16T14:05:03.715Z,4.53
2022-10-16T14:07:34.037Z,4.60
2022-10-16T14:10:08.268Z,4.20
2022-10-16T14:12:35.547Z,4.15
2022-10-16T14:15:02.300Z,6.40
2022-10-16T14:17:30.440Z,5.43
2022-10-16T14:20:01.008Z,5.40
2022-10-16T14:22:43.316Z,3.80
2022-10-16T14:25:27.487Z,4.53
2022-10-16T14:28:05.043Z,4.32
2022-10-16T14:30:33.924Z,4.28
2022-10-16T14:33:07.524Z,4.03
2022-10-16T14:35:40.410Z,3.40
2022-10-16T14:38:07.481Z,3.85
2022-10-16T14:40:37.902Z,5.57
2022-10-16T14:43:04.888Z,4.32
2022-10-16T14:45:32.946Z,3.78
2022-10-16T14:48:04.966Z,4.00
2022-10-16T14:50:31.550Z,3.60
2022-10-16T14:52:58.145Z,4.72
2022-10-16T14:57:59.650Z,4.25
2022-10-16T15:00:27.879Z,6.28
2022-10-16T15:02:54.477Z,4.68
2022-10-16T15:05:28.055Z,5.03
2022-10-16T15:07:55.954Z,3.72
2022-10-16T15:10:23.591Z,4.03
2022-10-16T15:12:50.230Z,4.28
2022-10-16T15:15:21.446Z,5.12
2022-10-16T15:17:48.897Z,5.12
2022-10-16T15:20:15.524Z,4.65
2022-10-16T15:22:42.078Z,5.45
2022-10-16T15:25:33.694Z,3.58
2022-10-16T15:28:00.754Z,4.62
2022-10-16T15:30:27.304Z,4.32
2022-10-16T15:32:53.995Z,5.47
2022-10-16T15:35:20.626Z,4.30
2022-10-16T15:37:48.227Z,3.70
2022-10-16T15:40:15.237Z,3.80
2022-10-16T15:42:42.121Z,3.97
2022-10-16T15:45:10.098Z,6.43
2022-10-16T15:47:36.900Z,4.20
2022-10-16T15:50:04.070Z,5.65
2022-10-16T15:52:32.696Z,3.85
2022-10-16T15:54:59.823Z,3.17
2022-10-16T15:57:26.878Z,6.35
2022-10-16T15:59:53.485Z,4.95
2022-10-16T16:02:20.095Z,5.78
2022-10-16T16:04:46.645Z,4.45
2022-10-16T16:07:13.287Z,4.60
2022-10-16T16:09:39.831Z,8.27
2022-10-16T16:12:06.418Z,5.57
2022-10-16T16:14:32.991Z,5.20
2022-10-16T16:16:59.568Z,4.55
2022-10-16T16:19:26.153Z,4.60
2022-10-16T16:21:52.712Z,3.95
2022-10-16T16:24:19.278Z,5.55
2022-10-16T16:26:45.870Z,5.37
2022-10-16T16:29:13.428Z,5.85
2022-10-16T16:31:40.305Z,4.10
2022-10-16T16:34:06.913Z,4.50
2022-10-16T16:36:33.883Z,6.30
2022-10-16T16:39:00.450Z,5.25
2022-10-16T16:41:28.884Z,4.05
2022-10-16T16:43:55.587Z,4.85
2022-10-16T16:46:22.272Z,6.45
2022-10-16T16:48:50.975Z,5.50
2022-10-16T16:51:19.185Z,6.53
2022-10-16T16:53:49.408Z,5.95
2022-10-16T16:56:15.967Z,5.60
2022-10-16T16:58:42.810Z,6.53
2022-10-16T17:01:25.983Z,5.30
2022-10-16T17:03:53.472Z,7.00
2022-10-16T17:06:28.325Z,8.45
2022-10-16T17:08:54.999Z,7.03
2022-10-16T17:11:27.730Z,6.95
2022-10-16T17:13:56.983Z,8.25
2022-10-16T17:16:30.278Z,10.10
2022-10-16T17:18:59.354Z,9.20
2022-10-16T17:21:26.904Z,7.25
2022-10-16T17:23:53.652Z,7.47
2022-10-16T17:26:20.268Z,7.95
2022-10-16T17:28:46.921Z,8.63
2022-10-16T17:31:18.662Z,6.90
2022-10-16T17:33:45.321Z,5.78
2022-10-16T17:36:14.493Z,7.78
2022-10-16T17:38:41.787Z,6.03
2022-10-16T17:41:19.355Z,5.45
2022-10-16T17:43:45.980Z,5.85
2022-10-16T17:46:12.933Z,7.72
2022-10-16T17:48:43.807Z,5.87
2022-10-16T17:51:11.189Z,6.55
2022-10-16T17:53:37.929Z,5.85
2022-10-16T17:56:09.046Z,6.05
2022-10-16T17:58:35.630Z,6.10
2022-10-16T18:01:02.447Z,6.93
2022-10-16T18:03:29.112Z,6.60
2022-10-16T18:05:55.853Z,7.47
2022-10-16T18:08:26.334Z,8.05
2022-10-16T18:10:55.416Z,5.87
2022-10-16T18:13:23.491Z,9.18
2022-10-16T18:16:02.520Z,7.78
2022-10-16T18:18:29.832Z,6.85
2022-10-16T18:21:00.075Z,6.60
2022-10-16T18:23:27.311Z,5.72
2022-10-16T18:25:53.926Z,5.55
2022-10-16T18:28:20.784Z,5.93
2022-10-16T18:31:01.358Z,6.35
2022-10-16T18:33:28.263Z,8.13
2022-10-16T18:35:54.863Z,8.52
2022-10-16T18:38:21.512Z,10.45
2022-10-16T18:40:48.171Z,6.40
2022-10-16T18:43:14.748Z,5.72
2022-10-16T18:45:41.307Z,8.40
2022-10-16T18:48:07.881Z,5.03
2022-10-16T18:50:34.621Z,6.50
2022-10-16T18:53:01.224Z,6.68
2022-10-16T18:55:30.905Z,7.12
2022-10-16T18:57:57.727Z,6.03
2022-10-16T19:00:24.331Z,6.18
2022-10-16T19:02:50.918Z,7.00
2022-10-16T19:05:17.480Z,8.90
2022-10-16T19:07:47.139Z,6.55
2022-10-16T19:10:14.081Z,6.53
2022-10-16T19:12:41.274Z,6.90
2022-10-16T19:15:08.310Z,8.52
2022-10-16T19:17:36.533Z,9.50
2022-10-16T19:20:04.525Z,8.77
2022-10-16T19:22:51.050Z,5.62
2022-10-16T19:25:18.406Z,7.55
2022-10-16T19:27:44.994Z,5.68
2022-10-16T19:32:43.179Z,7.15
2022-10-16T19:35:09.842Z,6.55
2022-10-16T19:37:36.556Z,8.30
2022-10-16T19:40:04.522Z,8.00
2022-10-16T19:42:31.122Z,6.15
2022-10-16T19:44:57.664Z,8.30
2022-10-16T19:47:24.738Z,8.80
2022-10-16T19:49:52.471Z,7.53
2022-10-16T19:52:19.065Z,7.82
2022-10-16T19:54:45.736Z,6.30
2022-10-16T19:57:12.315Z,6.93
2022-10-16T19:59:45.893Z,8.75
2022-10-16T20:02:12.659Z,9.15
2022-10-16T20:04:39.218Z,8.55
2022-10-16T20:07:05.942Z,7.75
2022-10-16T20:09:33.252Z,6.37
2022-10-16T20:11:59.828Z,8.27
2022-10-16T20:14:26.381Z,8.25
2022-10-16T20:16:55.482Z,6.30
2022-10-16T20:19:22.114Z,7.47
2022-10-16T20:21:48.800Z,7.75
2022-10-16T20:24:15.641Z,7.75
2022-10-16T20:26:42.240Z,7.72
2022-10-16T20:29:08.882Z,8.95
2022-10-16T20:31:35.549Z,8.40
2022-10-16T20:34:04.938Z,8.00
2022-10-16T20:36:33.377Z,7.00
2022-10-16T20:39:00.513Z,6.40
2022-10-16T20:41:27.374Z,7.30
2022-10-16T20:43:55.666Z,7.20
2022-10-16T20:46:23.751Z,7.90
2022-10-16T20:48:50.514Z,8.05
2022-10-16T20:51:17.860Z,8.25
2022-10-16T20:53:46.480Z,8.23
2022-10-16T20:56:15.776Z,8.57
2022-10-16T20:58:42.443Z,8.43
2022-10-16T21:01:10.480Z,7.90
2022-10-16T21:03:37.303Z,6.85
2022-10-16T21:06:07.638Z,7.85
2022-10-16T21:08:38.161Z,6.85
2022-10-16T21:11:19.136Z,8.77
2022-10-16T21:13:45.884Z,7.37
2022-10-16T21:16:13.618Z,7.62
2022-10-16T21:18:44.219Z,8.60
2022-10-16T21:21:12.133Z,8.38
2022-10-16T21:23:38.774Z,6.70
2022-10-16T21:26:05.323Z,7.30
2022-10-16T21:28:32.103Z,7.80
2022-10-16T21:30:58.887Z,6.87
2022-10-16T21:33:25.489Z,8.10
2022-10-16T21:35:52.058Z,7.82
2022-10-16T21:38:18.624Z,7.95
2022-10-16T21:40:45.646Z,7.62
2022-10-16T21:43:13.584Z,7.78
2022-10-16T21:45:40.155Z,8.60
2022-10-16T21:48:06.959Z,7.32
2022-10-16T21:50:33.519Z,9.00
2022-10-16T21:53:00.080Z,9.20
2022-10-16T21:55:26.648Z,9.15
2022-10-16T21:57:53.182Z,8.05
2022-10-16T22:00:19.850Z,10.13
2022-10-16T22:02:46.408Z,8.00
2022-10-16T22:05:12.988Z,8.57
2022-10-16T22:07:39.580Z,7.78
2022-10-16T22:10:06.784Z,9.15
2022-10-16T22:12:33.333Z,7.68
2022-10-16T22:14:59.870Z,7.03
2022-10-16T22:17:26.567Z,8.18
2022-10-16T22:19:53.280Z,8.60
2022-10-16T22:22:19.850Z,7.40
2022-10-16T22:24:47.107Z,8.18
2022-10-16T22:27:13.681Z,7.82
2022-10-16T22:29:40.246Z,8.38
2022-10-16T22:32:07.669Z,10.02
2022-10-16T22:34:36.693Z,8.15
2022-10-16T22:37:03.559Z,9.30
2022-10-16T22:39:30.153Z,9.27
2022-10-16T22:41:56.841Z,7.82
2022-10-16T22:44:23.407Z,7.95
2022-10-16T22:46:49.982Z,9.23
2022-10-16T22:49:18.643Z,8.52
2022-10-16T22:51:45.188Z,10.85
2022-10-16T22:54:11.818Z,10.27
2022-10-16T22:56:38.441Z,9.43
2022-10-16T22:59:05.151Z,9.98
2022-10-16T23:01:34.724Z,9.25
2022-10-16T23:04:01.558Z,8.60
2022-10-16T23:06:29.644Z,8.25
2022-10-16T23:08:57.486Z,9.73
2022-10-16T23:11:24.060Z,9.02
2022-10-16T23:13:50.644Z,8.55
2022-10-16T23:16:18.245Z,10.75
2022-10-16T23:18:44.939Z,9.48
2022-10-16T23:21:16.226Z,8.90
2022-10-16T23:23:42.878Z,9.85
2022-10-16T23:26:13.819Z,8.57
2022-10-16T23:28:40.520Z,11.65
2022-10-16T23:31:07.321Z,9.25
2022-10-16T23:33:34.128Z,9.52
2022-10-16T23:36:04.911Z,9.93
2022-10-16T23:38:34.819Z,8.25
2022-10-16T23:41:01.542Z,8.35
2022-10-16T23:43:28.116Z,9.60
2022-10-16T23:45:54.824Z,8.40
2022-10-16T23:48:21.393Z,11.23
2022-10-16T23:50:47.975Z,10.32
2022-10-16T23:53:14.633Z,9.63
2022-10-16T23:55:41.251Z,10.68
2022-10-16T23:58:07.831Z,8.48
